Time;durP1;ratioP1;P1;durP2;ratioP2;P2;SDS_P1;SDS_P2;PMS_P1;PMS_P2;Temp;Humidity;BMP_temperature;BMP_pressure;BME280_temperature;BME280_humidity;BME280_pressure;Samples;Min_cycle;Max_cycle;Signal;HPM_P1;HPM_P2
2021/07/12 00:00:32;;;;;;;8.67;7.90;;;21.00;99.90;;;;;;5005502;28;20878;-85
2021/07/12 00:03:00;;;;;;;8.23;7.53;;;20.90;99.90;;;;;;5028025;28;20438;-86
2021/07/12 00:05:27;;;;;;;9.07;8.20;;;20.80;99.90;;;;;;5018568;28;20460;-85
2021/07/12 00:07:54;;;;;;;8.23;7.43;;;20.70;99.90;;;;;;5031337;28;20459;-86
2021/07/12 00:10:24;;;;;;;10.60;8.97;;;20.80;99.90;;;;;;5015831;28;20466;-86
2021/07/12 00:12:52;;;;;;;9.37;8.57;;;20.70;99.90;;;;;;4989852;28;20846;-85
2021/07/12 00:15:20;;;;;;;10.10;9.30;;;20.80;99.90;;;;;;5000753;28;20478;-89
2021/07/12 00:17:47;;;;;;;9.43;8.73;;;21.00;99.90;;;;;;5007598;28;20763;-83
2021/07/12 00:20:16;;;;;;;9.80;8.63;;;20.70;99.90;;;;;;5013549;28;20473;-85
2021/07/12 00:22:44;;;;;;;9.83;9.10;;;20.40;99.90;;;;;;4998523;28;20499;-83
2021/07/12 00:25:12;;;;;;;10.50;9.67;;;20.40;99.90;;;;;;5003446;28;20455;-83
2021/07/12 00:27:39;;;;;;;9.30;8.53;;;20.40;99.90;;;;;;5006043;28;20450;-83
2021/07/12 00:30:09;;;;;;;10.57;9.60;;;20.50;99.90;;;;;;4995638;28;20545;-83
2021/07/12 00:32:36;;;;;;;10.40;9.47;;;20.60;99.90;;;;;;4994870;28;20488;-83
2021/07/12 00:35:11;;;;;;;10.50;9.50;;;20.50;99.90;;;;;;5007745;28;20510;-83
2021/07/12 00:37:38;;;;;;;10.63;9.17;;;20.40;99.90;;;;;;5008025;28;20968;-83
2021/07/12 00:40:07;;;;;;;9.70;8.80;;;20.30;99.90;;;;;;4998614;28;20473;-87
2021/07/12 00:42:35;;;;;;;9.40;8.60;;;20.20;99.90;;;;;;5015396;28;20443;-86
2021/07/12 00:45:08;;;;;;;10.47;9.43;;;20.10;99.90;;;;;;5002528;28;20437;-87
2021/07/12 00:47:35;;;;;;;9.07;8.27;;;20.00;99.90;;;;;;5002554;28;20449;-87
2021/07/12 00:50:06;;;;;;;10.40;9.50;;;20.00;99.90;;;;;;5020321;28;20466;-87
2021/07/12 00:52:34;;;;;;;9.07;8.27;;;20.00;99.90;;;;;;5027155;28;20446;-83
2021/07/12 00:55:23;;;;;;;9.97;9.07;;;20.20;99.90;;;;;;5021416;28;20485;-84
2021/07/12 00:57:51;;;;;;;9.50;8.70;;;20.20;99.90;;;;;;5020658;28;20445;-83
2021/07/12 01:00:21;;;;;;;9.10;8.30;;;20.10;99.90;;;;;;5001458;28;20520;-85
2021/07/12 01:02:48;;;;;;;10.00;9.20;;;20.10;99.90;;;;;;5000342;28;20449;-84
2021/07/12 01:05:17;;;;;;;10.40;9.60;;;20.10;99.90;;;;;;4997541;28;20467;-84
2021/07/12 01:07:44;;;;;;;10.40;9.50;;;20.20;99.90;;;;;;5009040;28;20454;-84
2021/07/12 01:13:37;;;;;;;10.20;9.40;;;20.20;99.90;;;;;;4917938;29;20506;-86
2021/07/12 01:16:44;;;;;;;11.30;10.40;;;20.10;99.90;;;;;;5014326;28;20448;-85
2021/07/12 01:19:39;;;;;;;11.93;10.93;;;20.00;99.90;;;;;;4992955;28;20977;-83
2021/07/12 01:22:50;;;;;;;11.70;10.80;;;20.00;99.90;;;;;;4993111;28;20464;-82
2021/07/12 01:25:36;;;;;;;11.87;10.97;;;19.90;99.90;;;;;;5003062;28;20843;-83
2021/07/12 01:28:26;;;;;;;11.10;10.10;;;19.90;99.90;;;;;;5021915;28;20433;-85
2021/07/12 01:31:27;;;;;;;11.03;10.07;;;19.80;99.90;;;;;;5020735;28;20466;-86
2021/07/12 01:34:21;;;;;;;12.03;11.00;;;19.60;99.90;;;;;;5030793;28;20577;-86
2021/07/12 01:36:57;;;;;;;12.13;11.10;;;19.70;99.90;;;;;;5009749;28;20565;-84
2021/07/12 01:42:11;;;;;;;11.73;10.63;;;19.50;99.90;;;;;;5001515;28;20477;-85
2021/07/12 01:45:01;;;;;;;12.53;11.20;;;19.40;99.90;;;;;;5008532;28;20469;-85
2021/07/12 01:48:03;;;;;;;12.80;11.77;;;19.30;99.90;;;;;;5012125;28;20423;-85
2021/07/12 01:50:41;;;;;;;11.70;10.70;;;19.40;99.90;;;;;;5004308;28;20525;-85
2021/07/12 01:53:34;;;;;;;12.33;11.23;;;19.40;99.90;;;;;;5007260;28;20509;-84
2021/07/12 01:56:20;;;;;;;12.47;11.47;;;19.30;99.90;;;;;;4991704;28;20455;-85
2021/07/12 01:58:54;;;;;;;13.60;12.47;;;19.40;99.90;;;;;;5004924;28;20450;-84
2021/07/12 02:01:22;;;;;;;12.67;11.43;;;19.30;99.90;;;;;;5012914;28;20929;-84
2021/07/12 02:03:50;;;;;;;13.17;11.97;;;19.30;99.90;;;;;;5012648;28;20462;-84
2021/07/12 02:06:20;;;;;;;13.13;12.07;;;19.40;99.90;;;;;;5014061;28;20451;-86
2021/07/12 02:08:50;;;;;;;12.80;11.80;;;19.50;99.90;;;;;;5005851;28;20474;-84
2021/07/12 02:11:17;;;;;;;12.90;11.87;;;19.50;99.90;;;;;;5017791;28;20481;-84
2021/07/12 02:13:49;;;;;;;12.13;11.13;;;19.40;99.90;;;;;;4994206;28;20911;-85
2021/07/12 02:16:18;;;;;;;11.80;10.90;;;19.30;99.90;;;;;;4999203;28;20456;-82
2021/07/12 02:18:47;;;;;;;14.20;12.80;;;19.30;99.90;;;;;;4996986;28;20494;-84
2021/07/12 02:21:15;;;;;;;14.53;13.13;;;19.20;99.90;;;;;;4986959;28;20836;-83
2021/07/12 02:23:43;;;;;;;13.10;12.00;;;19.20;99.90;;;;;;5011306;28;20450;-84
2021/07/12 02:26:13;;;;;;;14.33;13.13;;;19.20;99.90;;;;;;5000141;28;20492;-86
2021/07/12 02:28:44;;;;;;;15.47;14.03;;;19.40;99.90;;;;;;5014509;28;20447;-84
2021/07/12 02:31:13;;;;;;;15.00;13.60;;;19.50;99.90;;;;;;5000760;28;20487;-83
2021/07/12 02:33:42;;;;;;;14.50;13.20;;;19.50;99.90;;;;;;5011646;28;20447;-84
2021/07/12 02:36:09;;;;;;;14.87;12.60;;;19.30;99.90;;;;;;4995825;28;20465;-85
2021/07/12 02:38:40;;;;;;;14.73;13.33;;;19.30;99.90;;;;;;5018555;28;20461;-86
2021/07/12 02:41:07;;;;;;;14.17;12.90;;;19.30;99.90;;;;;;5013070;28;20486;-84
2021/07/12 02:43:36;;;;;;;14.60;13.40;;;19.40;99.90;;;;;;5006962;28;20460;-85
2021/07/12 02:46:07;;;;;;;16.73;15.03;;;19.30;99.90;;;;;;4998309;28;20457;-85
2021/07/12 02:48:34;;;;;;;15.23;13.90;;;19.30;99.90;;;;;;4987259;28;20454;-84
2021/07/12 02:51:04;;;;;;;15.77;14.37;;;19.20;99.90;;;;;;4993812;28;20467;-84
2021/07/12 02:53:33;;;;;;;16.70;14.20;;;19.10;99.90;;;;;;5010237;28;20484;-85
2021/07/12 02:56:00;;;;;;;15.10;13.60;;;19.00;99.90;;;;;;4989665;28;20447;-84
2021/07/12 02:58:27;;;;;;;14.80;13.60;;;18.90;99.90;;;;;;4999540;28;20454;-83
2021/07/12 03:00:53;;;;;;;14.47;13.17;;;18.90;99.90;;;;;;4998726;28;20560;-84
2021/07/12 03:03:20;;;;;;;14.70;13.37;;;18.80;99.90;;;;;;5013129;28;20878;-83
2021/07/12 03:05:56;;;;;;;14.97;13.70;;;18.80;99.90;;;;;;5005437;28;20505;-83
2021/07/12 03:08:30;;;;;;;15.37;13.97;;;18.90;99.90;;;;;;4995550;28;20458;-83
2021/07/12 03:10:59;;;;;;;15.23;13.90;;;19.00;99.90;;;;;;5003369;28;20823;-81
2021/07/12 03:13:41;;;;;;;16.53;14.87;;;19.10;99.90;;;;;;5016442;28;20465;-85
2021/07/12 03:16:09;;;;;;;16.23;14.63;;;19.10;99.90;;;;;;5016558;28;20450;-83
2021/07/12 03:18:44;;;;;;;16.10;14.57;;;19.10;99.90;;;;;;5012129;28;20487;-85
2021/07/12 03:21:12;;;;;;;17.30;15.70;;;19.00;99.90;;;;;;5000976;28;20990;-83
2021/07/12 03:23:44;;;;;;;16.17;14.70;;;18.90;99.90;;;;;;4993449;28;20541;-84
2021/07/12 03:26:13;;;;;;;16.07;14.53;;;18.80;99.90;;;;;;5012870;28;20462;-83
2021/07/12 03:28:40;;;;;;;16.13;14.73;;;18.60;99.90;;;;;;4994219;28;20948;-84
2021/07/12 03:31:09;;;;;;;17.47;15.63;;;18.50;99.90;;;;;;5012755;28;20467;-84
2021/07/12 03:33:38;;;;;;;17.23;15.63;;;18.50;99.90;;;;;;5013702;28;20478;-84
2021/07/12 03:36:43;;;;;;;16.57;14.87;;;18.50;99.90;;;;;;5011702;28;21247;-83
2021/07/12 03:39:10;;;;;;;16.40;14.90;;;18.50;99.90;;;;;;5009467;28;20455;-84
2021/07/12 03:41:38;;;;;;;16.80;15.27;;;18.70;99.90;;;;;;5008202;28;20864;-82
2021/07/12 03:44:06;;;;;;;16.70;15.20;;;18.80;99.90;;;;;;4996698;28;20454;-84
2021/07/12 03:46:33;;;;;;;16.57;14.97;;;18.80;99.90;;;;;;4993206;28;20458;-85
2021/07/12 03:51:29;;;;;;;15.33;13.83;;;18.60;99.90;;;;;;5032781;23;20523;-84
2021/07/12 03:53:56;;;;;;;16.83;14.00;;;18.40;99.90;;;;;;5009886;28;20454;-84
2021/07/12 03:56:23;;;;;;;16.50;14.67;;;18.30;99.90;;;;;;5033642;28;21246;-83
2021/07/12 03:58:50;;;;;;;14.33;12.93;;;18.40;99.90;;;;;;5026715;28;20527;-82
2021/07/12 04:01:21;;;;;;;14.73;13.23;;;18.30;99.90;;;;;;5023128;28;20466;-83
2021/07/12 04:03:52;;;;;;;14.83;13.40;;;18.30;99.90;;;;;;5033410;28;20450;-83
2021/07/12 04:06:18;;;;;;;17.30;13.93;;;18.30;99.90;;;;;;5024292;28;21007;-82
2021/07/12 04:09:26;;;;;;;18.07;14.40;;;18.60;99.90;;;;;;5013313;28;20483;-82
2021/07/12 04:11:56;;;;;;;16.73;14.93;;;18.70;99.90;;;;;;4994798;28;20468;-82
2021/07/12 04:14:22;;;;;;;17.60;14.97;;;18.70;99.90;;;;;;5026108;28;20862;-83
2021/07/12 04:16:49;;;;;;;15.70;14.10;;;18.60;99.90;;;;;;5025416;28;20453;-83
2021/07/12 04:19:15;;;;;;;16.30;14.63;;;18.50;99.90;;;;;;5024834;28;20548;-85
2021/07/12 04:21:42;;;;;;;15.33;13.80;;;18.50;99.90;;;;;;5031703;28;20451;-82
2021/07/12 04:24:09;;;;;;;19.90;15.57;;;18.40;99.90;;;;;;5030005;28;20488;-83
2021/07/12 04:26:39;;;;;;;18.30;14.60;;;18.40;99.90;;;;;;5029474;28;20433;-87
2021/07/12 04:29:06;;;;;;;16.30;14.60;;;18.40;99.90;;;;;;5039237;28;20476;-83
2021/07/12 04:32:05;;;;;;;16.00;14.33;;;18.50;99.90;;;;;;4979723;28;20981;-82
2021/07/12 04:34:32;;;;;;;15.97;14.50;;;18.80;99.90;;;;;;4977292;28;20479;-82
2021/07/12 04:36:59;;;;;;;16.60;15.00;;;18.80;99.90;;;;;;5035660;28;20446;-82
2021/07/12 04:39:25;;;;;;;15.23;13.80;;;18.90;99.90;;;;;;5016585;28;20484;-85
2021/07/12 04:41:53;;;;;;;18.73;15.10;;;18.90;99.90;;;;;;5020751;28;20877;-85
2021/07/12 04:44:21;;;;;;;15.93;14.27;;;18.90;99.90;;;;;;5004292;28;20470;-84
2021/07/12 04:46:49;;;;;;;15.50;14.00;;;18.90;99.90;;;;;;5029711;28;20556;-84
2021/07/12 04:49:16;;;;;;;15.77;14.17;;;19.00;99.90;;;;;;5007722;28;20448;-85
2021/07/12 04:51:57;;;;;;;15.73;14.23;;;18.90;99.90;;;;;;4958855;28;20531;-85
2021/07/12 04:54:24;;;;;;;20.57;15.00;;;18.90;99.90;;;;;;5015714;28;20450;-83
2021/07/12 04:56:50;;;;;;;17.67;15.77;;;18.70;99.90;;;;;;5006655;28;20511;-85
2021/07/12 05:00:11;;;;;;;15.63;13.67;;;18.60;99.90;;;;;;4992060;28;20553;-86
2021/07/12 05:06:18;;;;;;;21.57;15.17;;;18.80;99.90;;;;;;4981967;28;20502;-83
2021/07/12 05:12:33;;;;;;;23.63;14.67;;;18.60;99.90;;;;;;4844599;29;20589;-84
2021/07/12 05:14:59;;;;;;;17.53;14.73;;;18.90;99.90;;;;;;4968864;28;20496;-86
2021/07/12 05:17:32;;;;;;;16.83;15.20;;;19.00;99.90;;;;;;4993138;28;20458;-85
2021/07/12 05:20:19;;;;;;;17.43;15.60;;;19.10;99.90;;;;;;5105656;23;20503;-82
2021/07/12 05:30:19;;;;;;;18.90;14.73;;;19.10;99.90;;;;;;4913411;28;20480;-83
2021/07/12 05:32:46;;;;;;;17.63;14.77;;;19.20;99.90;;;;;;5008857;28;20461;-82
2021/07/12 05:35:13;;;;;;;20.73;15.13;;;19.10;99.90;;;;;;5004436;28;21075;-84
2021/07/12 05:37:41;;;;;;;16.90;14.93;;;19.20;99.90;;;;;;4994125;28;20446;-84
2021/07/12 05:40:09;;;;;;;16.27;13.80;;;19.10;99.90;;;;;;5000765;28;20618;-84
2021/07/12 05:46:24;;;;;;;22.73;16.40;;;19.30;99.90;;;;;;5009548;28;20438;-84
2021/07/12 05:48:51;;;;;;;18.80;16.30;;;19.40;99.90;;;;;;5013451;28;20453;-83
2021/07/12 05:51:17;;;;;;;17.33;15.70;;;19.40;99.90;;;;;;5002186;28;20467;-84
2021/07/12 05:53:45;;;;;;;16.50;14.80;;;19.50;99.90;;;;;;4995256;28;20450;-84
2021/07/12 05:59:22;;;;;;;15.83;14.33;;;19.50;99.90;;;;;;4995026;28;20622;-83
2021/07/12 06:01:52;;;;;;;14.70;13.30;;;19.70;99.90;;;;;;5011650;28;20485;-83
2021/07/12 06:04:19;;;;;;;17.70;15.90;;;20.00;99.90;;;;;;4999752;28;20518;-84
2021/07/12 06:06:48;;;;;;;19.73;17.73;;;19.80;99.90;;;;;;5009756;28;20513;-83
2021/07/12 06:09:15;;;;;;;19.07;17.27;;;19.90;99.90;;;;;;5003532;28;20465;-83
2021/07/12 06:11:41;;;;;;;20.83;18.93;;;19.80;99.90;;;;;;4982570;28;20458;-82
2021/07/12 06:14:09;;;;;;;19.53;17.67;;;19.50;99.90;;;;;;4983821;28;20455;-83
2021/07/12 06:16:36;;;;;;;16.87;15.37;;;19.30;99.90;;;;;;5001926;28;20541;-85
2021/07/12 06:19:03;;;;;;;16.57;15.07;;;19.40;99.90;;;;;;4984688;28;20454;-85
2021/07/12 06:21:30;;;;;;;15.57;14.00;;;19.70;99.90;;;;;;4980580;28;20482;-83
2021/07/12 06:23:57;;;;;;;15.60;14.20;;;19.70;99.90;;;;;;5001721;28;20455;-82
2021/07/12 06:26:29;;;;;;;15.93;14.33;;;20.10;99.90;;;;;;4984975;28;20496;-83
2021/07/12 06:28:57;;;;;;;15.87;14.47;;;20.10;99.90;;;;;;5005734;28;20498;-85
2021/07/12 06:31:23;;;;;;;16.50;14.90;;;20.10;99.90;;;;;;4979360;28;20480;-85
2021/07/12 06:33:53;;;;;;;18.53;16.83;;;20.00;99.90;;;;;;4992048;28;20471;-82
2021/07/12 06:36:37;;;;;;;20.17;18.47;;;20.20;99.90;;;;;;4988680;28;20486;-83
2021/07/12 06:39:04;;;;;;;19.93;17.90;;;20.50;99.90;;;;;;4999603;28;20471;-81
2021/07/12 06:41:32;;;;;;;19.00;17.20;;;20.70;99.90;;;;;;5012300;28;20435;-88
2021/07/12 06:44:01;;;;;;;20.47;18.53;;;20.70;99.90;;;;;;4983930;28;20452;-86
2021/07/12 06:46:27;;;;;;;20.90;18.73;;;20.70;99.90;;;;;;4980659;28;20440;-87
2021/07/12 06:48:54;;;;;;;21.03;19.13;;;20.90;99.90;;;;;;4981394;28;20454;-84
2021/07/12 06:51:21;;;;;;;18.93;17.13;;;21.00;99.90;;;;;;4994211;28;20483;-83
2021/07/12 06:53:48;;;;;;;20.50;18.67;;;20.80;99.90;;;;;;5004150;28;20928;-83
2021/07/12 06:56:15;;;;;;;20.17;18.47;;;20.80;99.90;;;;;;4986406;28;20489;-84
2021/07/12 06:58:45;;;;;;;18.20;16.57;;;20.60;99.90;;;;;;5015517;28;20443;-83
2021/07/12 07:16:05;;;;;;;13.00;11.90;;;21.50;99.90;;;;;;4771196;30;20515;-86
2021/07/12 07:18:32;;;;;;;13.30;12.20;;;21.50;99.90;;;;;;4802852;29;20453;-83
2021/07/12 07:20:59;;;;;;;14.57;13.20;;;21.80;99.90;;;;;;4792534;29;20487;-88
2021/07/12 07:23:25;;;;;;;13.73;12.53;;;21.80;99.90;;;;;;4906742;29;20562;-84
2021/07/12 07:25:53;;;;;;;13.60;12.40;;;21.70;99.90;;;;;;4938980;29;20450;-84
2021/07/12 07:28:23;;;;;;;13.83;12.63;;;21.70;99.90;;;;;;4936725;29;20454;-85
2021/07/12 07:30:50;;;;;;;12.20;11.20;;;21.80;99.90;;;;;;4907465;29;20490;-86
2021/07/12 07:33:17;;;;;;;12.90;11.70;;;21.90;99.90;;;;;;4906092;29;20462;-85
2021/07/12 07:35:44;;;;;;;12.13;10.80;;;22.10;99.90;;;;;;4900772;29;20555;-85
2021/07/12 07:38:10;;;;;;;12.43;11.23;;;22.20;99.90;;;;;;4913094;29;20470;-86
2021/07/12 07:45:09;;;;;;;15.10;11.30;;;22.30;99.90;;;;;;4781048;29;20558;-85
2021/07/12 07:48:18;;;;;;;12.67;11.43;;;22.40;99.90;;;;;;4799063;29;20649;-86
2021/07/12 07:51:54;;;;;;;10.67;9.77;;;22.40;99.90;;;;;;4892820;29;20546;-84
2021/07/12 07:54:45;;;;;;;10.33;9.40;;;22.60;99.70;;;;;;4895309;29;20966;-85
2021/07/12 08:07:07;;;;;;;8.43;7.73;;;23.30;98.00;;;;;;4939708;29;20875;-85
2021/07/12 08:12:09;;;;;;;9.70;7.80;;;23.00;98.40;;;;;;5628493;23;20492;-84
2021/07/12 08:14:36;;;;;;;9.33;8.43;;;23.40;97.60;;;;;;5019428;28;20460;-86
2021/07/12 08:17:10;;;;;;;7.43;6.63;;;23.50;97.60;;;;;;5029334;28;20425;-86
2021/07/12 08:19:42;;;;;;;6.30;5.80;;;23.90;96.70;;;;;;5010621;28;20523;-85
2021/07/12 08:22:09;;;;;;;7.40;6.80;;;23.60;97.00;;;;;;4998552;28;20542;-86
2021/07/12 08:24:36;;;;;;;6.87;6.23;;;24.10;96.30;;;;;;5013972;28;20446;-85
2021/07/12 08:27:03;;;;;;;6.10;5.60;;;24.40;95.20;;;;;;4992899;28;20450;-84
2021/07/12 08:29:30;;;;;;;6.47;5.87;;;24.50;94.80;;;;;;5006254;28;20475;-85
2021/07/12 08:31:57;;;;;;;6.10;5.60;;;24.40;95.30;;;;;;5026361;28;20513;-84
2021/07/12 08:34:24;;;;;;;5.40;5.00;;;24.50;94.60;;;;;;5034734;28;20449;-85
2021/07/12 08:36:51;;;;;;;8.23;5.17;;;24.60;93.90;;;;;;5016170;28;20496;-85
2021/07/12 08:39:20;;;;;;;5.30;4.90;;;24.50;94.40;;;;;;5001040;28;20470;-84
2021/07/12 08:41:47;;;;;;;5.37;4.87;;;24.40;94.80;;;;;;5001798;28;20450;-84
2021/07/12 08:44:29;;;;;;;4.70;4.30;;;25.40;92.70;;;;;;5010207;28;20539;-85
2021/07/12 08:46:57;;;;;;;4.40;4.10;;;25.70;91.50;;;;;;5012331;28;20924;-87
2021/07/12 08:49:25;;;;;;;5.10;4.10;;;25.80;90.70;;;;;;5031284;28;21084;-87
2021/07/12 08:51:52;;;;;;;3.53;3.33;;;25.60;90.90;;;;;;5018574;28;20462;-86
2021/07/12 08:54:20;;;;;;;4.83;3.80;;;26.40;89.50;;;;;;5011947;28;20469;-84
2021/07/12 08:57:35;;;;;;;3.80;3.60;;;26.70;87.80;;;;;;5008551;28;20473;-84
2021/07/12 09:04:45;;;;;;;3.90;3.70;;;28.00;81.10;;;;;;5002449;28;20486;-85
2021/07/12 09:07:32;;;;;;;4.50;3.67;;;27.90;79.50;;;;;;5000649;28;20465;-84
2021/07/12 09:12:45;;;;;;;3.67;3.47;;;27.00;82.10;;;;;;5543954;23;20502;-84
2021/07/12 09:15:25;;;;;;;3.57;3.27;;;27.10;82.50;;;;;;4987687;28;20449;-85
2021/07/12 09:21:49;;;;;;;3.60;3.30;;;28.20;78.40;;;;;;4973505;28;20492;-84
2021/07/12 09:24:18;;;;;;;3.50;3.30;;;28.70;75.70;;;;;;4976724;28;20461;-83
2021/07/12 09:26:55;;;;;;;2.97;2.73;;;29.40;73.10;;;;;;4988688;28;21131;-84
2021/07/12 09:29:28;;;;;;;3.10;2.90;;;29.60;70.70;;;;;;4978504;28;20504;-83
2021/07/12 09:31:56;;;;;;;3.23;3.03;;;29.20;70.20;;;;;;4990932;28;20527;-85
2021/07/12 09:34:26;;;;;;;2.93;2.73;;;28.80;71.50;;;;;;4989120;28;20539;-82
2021/07/12 09:36:53;;;;;;;3.67;3.20;;;28.70;71.80;;;;;;4986467;28;20476;-84
2021/07/12 09:39:25;;;;;;;4.93;3.37;;;28.70;71.70;;;;;;4993899;28;21063;-84
2021/07/12 09:42:08;;;;;;;3.07;2.70;;;28.20;71.20;;;;;;4980554;28;20460;-84
2021/07/12 09:44:52;;;;;;;3.13;2.93;;;28.10;71.80;;;;;;4953840;28;20435;-85
2021/07/12 09:47:23;;;;;;;2.93;2.73;;;28.40;71.50;;;;;;5000544;28;20466;-84
2021/07/12 09:49:52;;;;;;;2.87;2.70;;;29.20;70.40;;;;;;4991607;28;20515;-82
2021/07/12 09:52:22;;;;;;;3.40;3.20;;;30.20;67.00;;;;;;4970906;28;20448;-83
2021/07/12 10:01:53;;;;;;;3.20;3.00;;;30.00;64.70;;;;;;5650877;23;20557;-84
2021/07/12 10:04:21;;;;;;;2.73;2.57;;;29.30;67.30;;;;;;5017824;28;20857;-83
2021/07/12 10:06:49;;;;;;;3.20;2.90;;;30.30;63.20;;;;;;5031638;28;20468;-84
2021/07/12 10:09:21;;;;;;;3.00;2.80;;;31.30;59.60;;;;;;5025084;28;20453;-85
2021/07/12 10:11:51;;;;;;;3.10;2.90;;;32.30;57.20;;;;;;5017236;28;20458;-83
2021/07/12 10:14:20;;;;;;;2.70;2.50;;;32.40;54.70;;;;;;4991415;28;20451;-85
2021/07/12 10:16:47;;;;;;;3.30;3.10;;;32.10;53.60;;;;;;5004656;28;20513;-85
2021/07/12 10:19:14;;;;;;;2.80;2.70;;;31.40;55.30;;;;;;5012412;28;20451;-84
2021/07/12 10:21:47;;;;;;;2.50;2.30;;;30.50;57.10;;;;;;5014148;28;20454;-85
2021/07/12 10:24:15;;;;;;;3.40;3.20;;;30.30;57.80;;;;;;5008748;28;20439;-86
2021/07/12 10:26:45;;;;;;;2.50;2.40;;;30.20;57.70;;;;;;4989305;28;20537;-85
2021/07/12 10:29:13;;;;;;;7.60;2.20;;;29.70;58.90;;;;;;5002177;28;20446;-82
2021/07/12 10:31:57;;;;;;;2.27;2.10;;;30.20;57.60;;;;;;4992409;28;20463;-83
2021/07/12 10:34:35;;;;;;;2.50;2.40;;;30.20;57.10;;;;;;5017082;28;20463;-86
2021/07/12 10:37:06;;;;;;;2.93;2.73;;;31.20;55.50;;;;;;5010522;28;20470;-86
2021/07/12 10:40:09;;;;;;;2.80;2.60;;;31.20;55.60;;;;;;4909268;29;20463;-86
2021/07/12 10:42:42;;;;;;;3.17;2.87;;;30.60;55.80;;;;;;4926304;29;20487;-87
2021/07/12 10:45:29;;;;;;;2.67;2.50;;;29.80;57.60;;;;;;4922685;29;20460;-86
2021/07/12 10:47:59;;;;;;;3.00;2.70;;;29.30;59.00;;;;;;4940739;29;20442;-86
2021/07/12 10:50:33;;;;;;;3.40;3.10;;;29.20;59.40;;;;;;4921996;29;20502;-85
2021/07/12 10:53:01;;;;;;;3.37;3.07;;;28.80;60.00;;;;;;4922551;29;20448;-86
2021/07/12 10:55:37;;;;;;;3.20;3.00;;;28.50;62.60;;;;;;4939159;29;20453;-86
2021/07/12 10:58:18;;;;;;;3.57;3.27;;;28.00;63.80;;;;;;4937468;29;20449;-86
2021/07/12 11:11:58;;;;;;;3.20;3.00;;;27.20;66.40;;;;;;5070257;23;20506;-84
2021/07/12 11:15:05;;;;;;;3.07;2.87;;;27.30;67.20;;;;;;5014288;28;20901;-85
2021/07/12 11:17:52;;;;;;;3.93;3.60;;;27.30;67.50;;;;;;4997006;28;20989;-84
2021/07/12 11:20:42;;;;;;;3.50;3.20;;;27.20;68.90;;;;;;4973636;28;20473;-85
2021/07/12 11:23:35;;;;;;;2.90;2.80;;;27.30;67.80;;;;;;5006526;28;20454;-81
2021/07/12 11:26:02;;;;;;;3.23;3.00;;;27.50;66.70;;;;;;4973943;28;20464;-85
2021/07/12 11:28:56;;;;;;;3.00;2.80;;;27.30;67.40;;;;;;4983422;28;20533;-82
2021/07/12 11:31:56;;;;;;;3.67;2.20;;;27.20;66.90;;;;;;4989056;28;21042;-86
2021/07/12 11:34:45;;;;;;;2.20;1.90;;;27.20;66.00;;;;;;4979737;28;20526;-85
2021/07/12 11:37:13;;;;;;;2.60;2.40;;;27.30;63.30;;;;;;4990494;28;20482;-85
2021/07/12 11:46:52;;;;;;;2.87;2.67;;;26.90;65.80;;;;;;4799132;29;20434;-83
2021/07/12 11:49:21;;;;;;;2.80;2.60;;;26.90;65.40;;;;;;4809049;29;20472;-84
2021/07/12 11:51:58;;;;;;;3.10;2.80;;;26.80;66.00;;;;;;4934118;29;20449;-85
2021/07/12 11:54:26;;;;;;;2.80;2.60;;;26.70;66.80;;;;;;4928613;29;20465;-83
2021/07/12 11:56:57;;;;;;;3.50;2.00;;;26.40;67.60;;;;;;4925603;29;20589;-86
2021/07/12 11:59:29;;;;;;;2.40;2.20;;;26.40;66.80;;;;;;4940417;29;20559;-84
2021/07/12 12:01:57;;;;;;;1.90;1.80;;;26.60;66.00;;;;;;4922560;29;21116;-85
2021/07/12 12:04:24;;;;;;;2.00;1.90;;;26.80;65.50;;;;;;4943173;29;20449;-84
2021/07/12 12:07:19;;;;;;;3.93;2.10;;;26.70;65.60;;;;;;4945406;29;20669;-84
2021/07/12 12:13:21;;;;;;;2.10;2.00;;;26.70;66.20;;;;;;4925267;29;20681;-82
2021/07/12 12:15:50;;;;;;;1.90;1.80;;;26.80;66.70;;;;;;4941767;29;21818;-83
2021/07/12 12:18:23;;;;;;;2.27;2.10;;;26.70;66.60;;;;;;4939440;29;20464;-83
2021/07/12 12:21:27;;;;;;;2.20;2.10;;;26.90;67.00;;;;;;4984670;28;20521;-82
2021/07/12 12:23:54;;;;;;;2.20;2.10;;;26.90;67.60;;;;;;4983995;28;20453;-82
2021/07/12 12:29:46;;;;;;;2.20;2.10;;;26.60;68.50;;;;;;5007575;28;20565;-82
2021/07/12 12:32:28;;;;;;;2.30;2.10;;;26.80;67.90;;;;;;5002334;28;20483;-85
2021/07/12 12:34:55;;;;;;;2.10;2.00;;;26.80;67.60;;;;;;4992758;28;20446;-82
2021/07/12 12:37:22;;;;;;;2.13;1.93;;;26.90;68.00;;;;;;4992546;28;20479;-83
2021/07/12 12:39:49;;;;;;;2.30;2.20;;;26.70;68.10;;;;;;5003114;28;20455;-86
2021/07/12 12:42:26;;;;;;;2.20;1.90;;;26.60;67.80;;;;;;5011365;28;20444;-87
2021/07/12 12:45:07;;;;;;;2.10;2.00;;;27.00;66.10;;;;;;4943862;28;20458;-84
2021/07/12 12:47:34;;;;;;;2.23;2.10;;;26.70;66.70;;;;;;5000430;28;20478;-86
2021/07/12 12:50:15;;;;;;;2.33;2.13;;;26.60;66.60;;;;;;5018234;28;20473;-86
2021/07/12 12:52:42;;;;;;;2.40;2.30;;;26.70;67.60;;;;;;5000856;28;20449;-85
2021/07/12 12:55:13;;;;;;;2.60;2.20;;;26.60;67.80;;;;;;5019277;28;20439;-84
2021/07/12 12:57:47;;;;;;;2.90;2.70;;;26.60;68.10;;;;;;4992529;28;20546;-83
2021/07/12 13:00:17;;;;;;;2.33;2.20;;;26.60;68.30;;;;;;4988671;28;20474;-83
2021/07/12 13:02:49;;;;;;;2.60;2.40;;;26.40;69.60;;;;;;4988604;28;20545;-84
2021/07/12 13:05:21;;;;;;;3.87;2.40;;;26.50;69.40;;;;;;4993963;28;20510;-83
2021/07/12 13:07:54;;;;;;;2.60;2.40;;;26.60;69.80;;;;;;5006878;28;20510;-82
2021/07/12 13:13:12;;;;;;;3.20;2.50;;;26.60;71.00;;;;;;5001278;28;20546;-86
2021/07/12 13:15:39;;;;;;;2.73;2.33;;;26.40;71.40;;;;;;4987628;28;20436;-83
2021/07/12 13:18:09;;;;;;;2.57;2.47;;;26.30;73.40;;;;;;4980499;28;20487;-84
2021/07/12 13:20:44;;;;;;;2.70;2.50;;;26.20;73.60;;;;;;4981988;28;20958;-84
2021/07/12 13:27:06;;;;;;;4.13;2.80;;;26.30;73.00;;;;;;4968900;28;20501;-86
2021/07/12 13:29:33;;;;;;;3.07;2.87;;;26.20;73.90;;;;;;4995228;28;20476;-85
2021/07/12 13:31:59;;;;;;;2.83;2.63;;;26.10;74.80;;;;;;4981040;28;20468;-85
2021/07/12 13:34:26;;;;;;;4.40;3.50;;;26.00;75.90;;;;;;4981888;28;20770;-85
2021/07/12 13:36:53;;;;;;;3.00;2.70;;;26.10;76.40;;;;;;4975733;28;20507;-85
2021/07/12 13:39:20;;;;;;;3.00;2.80;;;26.30;75.50;;;;;;4988583;28;20456;-84
2021/07/12 13:41:46;;;;;;;3.30;3.10;;;26.20;75.30;;;;;;4981406;28;20519;-85
2021/07/12 13:44:13;;;;;;;3.30;3.10;;;26.10;75.50;;;;;;4977257;28;20510;-83
2021/07/12 13:46:40;;;;;;;3.80;3.40;;;26.20;75.80;;;;;;4980098;28;20472;-84
2021/07/12 13:49:07;;;;;;;3.20;2.97;;;26.10;76.30;;;;;;4977986;28;20868;-84
2021/07/12 13:51:36;;;;;;;2.50;2.40;;;26.30;76.00;;;;;;4981550;28;20471;-83
2021/07/12 13:54:25;;;;;;;2.60;2.40;;;26.30;75.50;;;;;;4963761;28;20549;-84
2021/07/12 13:56:52;;;;;;;3.57;2.43;;;26.00;74.90;;;;;;4961942;28;20484;-85
2021/07/12 13:59:19;;;;;;;5.43;3.33;;;26.00;75.50;;;;;;4989475;28;20837;-86
2021/07/12 14:01:46;;;;;;;3.13;2.93;;;26.10;75.00;;;;;;4979048;28;20531;-84
2021/07/12 14:04:12;;;;;;;2.90;2.70;;;26.20;74.40;;;;;;4964729;28;20444;-85
2021/07/12 14:06:39;;;;;;;2.90;2.73;;;26.20;74.60;;;;;;4978470;28;20467;-85
2021/07/12 14:09:07;;;;;;;3.43;3.13;;;26.20;74.90;;;;;;4977722;28;20800;-84
2021/07/12 14:11:34;;;;;;;2.83;2.63;;;26.30;74.80;;;;;;4980743;28;20472;-86
2021/07/12 14:14:05;;;;;;;3.93;2.80;;;26.40;75.00;;;;;;4974895;28;20504;-86
2021/07/12 14:16:46;;;;;;;3.10;2.47;;;26.30;75.10;;;;;;4925314;28;20480;-86
2021/07/12 14:19:13;;;;;;;3.20;2.93;;;26.20;75.20;;;;;;4990778;28;20809;-85
2021/07/12 14:21:40;;;;;;;3.00;2.40;;;26.20;74.40;;;;;;4976735;28;20464;-85
2021/07/12 14:27:52;;;;;;;3.43;3.00;;;26.10;74.50;;;;;;4976785;28;20520;-84
2021/07/12 14:30:21;;;;;;;3.03;2.83;;;26.30;74.00;;;;;;4992452;28;20495;-85
2021/07/12 14:32:47;;;;;;;2.40;2.20;;;26.20;73.20;;;;;;4986070;28;20452;-85
2021/07/12 14:35:14;;;;;;;2.70;2.50;;;26.20;74.90;;;;;;4975590;28;20668;-85
2021/07/12 14:37:41;;;;;;;2.90;2.70;;;26.00;75.10;;;;;;4981857;28;20578;-86
2021/07/12 14:40:08;;;;;;;2.53;2.27;;;25.70;76.20;;;;;;4969351;28;20480;-84
2021/07/12 14:42:35;;;;;;;3.60;3.27;;;25.70;76.70;;;;;;4975549;28;20452;-85
2021/07/12 14:45:04;;;;;;;3.03;2.83;;;25.90;76.50;;;;;;4971883;28;20452;-84
2021/07/12 14:47:31;;;;;;;3.10;2.87;;;25.80;75.90;;;;;;4980866;28;20456;-85
2021/07/12 14:49:57;;;;;;;2.97;2.77;;;25.70;76.20;;;;;;4980576;28;20482;-86
2021/07/12 14:52:24;;;;;;;3.00;2.33;;;25.80;76.30;;;;;;4968331;28;20452;-84
2021/07/12 14:54:51;;;;;;;3.00;2.27;;;25.70;76.70;;;;;;4976928;28;20456;-84
2021/07/12 14:57:17;;;;;;;3.17;2.87;;;25.70;77.00;;;;;;4973167;28;20515;-85
2021/07/12 14:59:44;;;;;;;3.00;2.70;;;25.90;76.80;;;;;;4963487;28;20468;-86